createdAt,value
2023-05-17T00:00:27.652Z,0.98
2023-05-17T00:05:29.558Z,0.80
2023-05-17T00:10:31.662Z,0.85
2023-05-17T00:15:33.830Z,1.13
2023-05-17T00:20:36.685Z,0.80
2023-05-17T00:25:38.367Z,1.10
2023-05-17T00:30:40.104Z,0.90
2023-05-17T00:35:41.974Z,0.75
2023-05-17T00:40:43.722Z,0.88
2023-05-17T00:45:45.576Z,0.90
2023-05-17T00:50:48.437Z,1.00
2023-05-17T00:55:50.847Z,0.90
2023-05-17T01:00:53.045Z,0.93
2023-05-17T01:05:55.587Z,1.13
2023-05-17T01:11:16.442Z,0.80
2023-05-17T01:16:21.990Z,1.10
2023-05-17T01:21:42.385Z,1.13
2023-05-17T01:26:47.247Z,1.40
2023-05-17T01:31:49.765Z,0.93
2023-05-17T01:36:52.144Z,0.77
2023-05-17T01:42:22.787Z,0.90
2023-05-17T01:47:56.628Z,1.52
2023-05-17T01:53:36.150Z,1.10
2023-05-17T01:58:45.754Z,1.33
2023-05-17T02:03:51.244Z,1.38
2023-05-17T02:08:53.628Z,1.98
2023-05-17T02:13:55.456Z,2.10
2023-05-17T02:18:57.307Z,1.73
2023-05-17T02:23:59.239Z,2.20
2023-05-17T02:29:01.155Z,1.83
2023-05-17T02:34:03.338Z,2.15
2023-05-17T02:39:05.057Z,1.95
2023-05-17T02:44:06.795Z,1.98
2023-05-17T02:49:08.508Z,2.15
2023-05-17T02:54:10.205Z,2.03
2023-05-17T02:59:11.940Z,2.38
2023-05-17T03:04:16.714Z,1.98
2023-05-17T03:09:18.975Z,2.13
2023-05-17T03:14:23.547Z,2.00
2023-05-17T03:19:26.036Z,2.33
2023-05-17T03:24:28.794Z,2.03
2023-05-17T03:29:30.755Z,2.15
2023-05-17T03:34:32.631Z,2.00
2023-05-17T03:39:34.637Z,2.42
2023-05-17T03:44:36.816Z,2.20
2023-05-17T03:49:38.829Z,1.85
2023-05-17T03:54:40.659Z,2.20
2023-05-17T03:59:42.422Z,2.67
2023-05-17T04:04:53.093Z,2.00
2023-05-17T04:10:02.938Z,2.08
2023-05-17T04:15:05.299Z,2.55
2023-05-17T04:20:07.574Z,2.45
2023-05-17T04:25:10.730Z,3.08
2023-05-17T04:30:13.596Z,2.75
2023-05-17T04:35:15.423Z,2.85
2023-05-17T04:40:20.102Z,2.63
2023-05-17T04:45:22.499Z,2.70
2023-05-17T04:50:25.897Z,2.60
2023-05-17T04:55:27.827Z,2.58
2023-05-17T05:00:30.003Z,3.58
2023-05-17T05:05:37.299Z,2.70
2023-05-17T05:10:39.316Z,3.35
2023-05-17T05:15:41.393Z,3.83
2023-05-17T05:20:43.524Z,3.83
2023-05-17T05:25:47.155Z,4.55
2023-05-17T05:30:50.241Z,3.60
2023-05-17T05:35:52.666Z,4.30
2023-05-17T05:40:54.693Z,3.60
2023-05-17T05:45:56.390Z,3.80
2023-05-17T05:50:58.434Z,3.38
2023-05-17T05:56:00.402Z,3.50
2023-05-17T06:01:04.750Z,3.83
2023-05-17T06:06:08.219Z,3.70
2023-05-17T06:11:10.005Z,3.95
2023-05-17T06:16:11.669Z,3.60
2023-05-17T06:21:15.945Z,3.95
2023-05-17T06:26:17.607Z,3.85
2023-05-17T06:31:20.985Z,3.92
2023-05-17T06:36:24.392Z,3.33
2023-05-17T06:41:27.074Z,3.33
2023-05-17T06:46:28.758Z,3.95
2023-05-17T06:51:31.117Z,3.70
2023-05-17T06:56:32.820Z,4.10
2023-05-17T07:01:39.192Z,3.65
2023-05-17T07:06:41.400Z,4.05
2023-05-17T07:11:43.070Z,3.58
2023-05-17T07:16:44.714Z,4.78
2023-05-17T07:21:47.118Z,4.22
2023-05-17T07:26:51.511Z,3.70
2023-05-17T07:31:54.001Z,3.83
2023-05-17T07:36:55.964Z,4.25
2023-05-17T07:41:57.668Z,3.80
2023-05-17T07:46:59.509Z,4.53
2023-05-17T07:52:02.725Z,4.30
2023-05-17T07:57:04.585Z,4.13
2023-05-17T08:02:06.728Z,4.05
2023-05-17T08:07:08.446Z,3.85
2023-05-17T08:12:10.154Z,3.35
2023-05-17T08:17:11.862Z,4.22
2023-05-17T08:22:13.872Z,2.97
2023-05-17T08:27:16.219Z,3.92
2023-05-17T08:32:17.877Z,3.53
2023-05-17T08:37:19.553Z,2.85
2023-05-17T08:42:27.225Z,2.65
2023-05-17T08:47:34.295Z,3.00
2023-05-17T08:52:37.477Z,3.00
2023-05-17T08:57:40.434Z,2.60
2023-05-17T09:02:42.929Z,3.50
2023-05-17T09:07:45.011Z,3.80
2023-05-17T09:12:46.828Z,2.78
2023-05-17T09:17:52.934Z,2.95
2023-05-17T09:22:55.697Z,3.28
2023-05-17T09:28:02.426Z,2.95
2023-05-17T09:33:08.646Z,3.45
2023-05-17T09:38:12.611Z,3.37
2023-05-17T09:43:17.121Z,3.40
2023-05-17T09:48:19.571Z,4.07
2023-05-17T09:53:40.020Z,3.40
2023-05-17T09:58:42.735Z,3.20
2023-05-17T10:03:44.515Z,3.35
2023-05-17T10:08:51.342Z,3.20
2023-05-17T10:14:05.908Z,2.88
2023-05-17T10:19:09.211Z,3.03
2023-05-17T10:24:11.983Z,2.38
2023-05-17T10:29:15.215Z,2.88
2023-05-17T10:34:18.740Z,2.83
2023-05-17T10:39:22.345Z,2.47
2023-05-17T10:44:24.826Z,2.90
2023-05-17T10:49:31.096Z,2.05
2023-05-17T10:54:37.176Z,2.65
2023-05-17T10:59:56.750Z,2.53
2023-05-17T11:05:00.585Z,2.25
2023-05-17T11:10:08.516Z,1.98
2023-05-17T11:15:17.653Z,2.28
2023-05-17T11:20:25.824Z,2.45
2023-05-17T11:25:30.329Z,2.20
2023-05-17T11:30:32.855Z,2.20
2023-05-17T11:35:36.686Z,1.83
2023-05-17T11:40:38.834Z,1.73
2023-05-17T11:45:52.269Z,2.05
2023-05-17T11:50:56.763Z,1.83
2023-05-17T11:56:04.368Z,2.33
2023-05-17T12:01:06.166Z,1.95
2023-05-17T12:06:15.650Z,1.90
2023-05-17T12:11:18.621Z,2.22
2023-05-17T12:16:22.732Z,2.20
2023-05-17T12:21:24.491Z,1.85
2023-05-17T12:26:26.559Z,1.92
2023-05-17T12:31:38.303Z,2.33
2023-05-17T12:36:40.641Z,2.22
2023-05-17T12:41:43.332Z,2.20
2023-05-17T12:46:45.674Z,1.30
2023-05-17T12:51:48.161Z,1.88
2023-05-17T12:56:49.871Z,1.90
2023-05-17T13:01:56.605Z,1.55
2023-05-17T13:12:05.622Z,2.05
2023-05-17T13:17:09.314Z,1.80
2023-05-17T13:22:11.123Z,1.70
2023-05-17T13:27:13.096Z,2.03
2023-05-17T13:32:14.962Z,1.98
2023-05-17T13:37:16.861Z,2.03
2023-05-17T13:42:18.712Z,1.88
2023-05-17T13:47:20.471Z,1.80
2023-05-17T13:52:23.163Z,1.80
2023-05-17T13:57:24.931Z,2.30
2023-05-17T14:02:26.629Z,1.80
2023-05-17T14:07:28.679Z,2.00
2023-05-17T14:12:30.468Z,1.70
2023-05-17T14:17:33.293Z,2.03
2023-05-17T14:22:35.146Z,1.77
2023-05-17T14:27:37.261Z,2.22
2023-05-17T14:32:39.292Z,1.60
2023-05-17T14:37:41.065Z,1.75
2023-05-17T14:42:43.404Z,1.80
2023-05-17T14:47:45.200Z,1.58
2023-05-17T14:52:47.347Z,1.98
2023-05-17T14:57:52.041Z,1.55
2023-05-17T15:02:54.074Z,1.70
2023-05-17T15:07:55.801Z,1.40
2023-05-17T15:12:57.580Z,1.85
2023-05-17T15:18:00.391Z,2.00
2023-05-17T15:23:02.160Z,1.80
2023-05-17T15:28:04.061Z,1.85
2023-05-17T15:33:06.597Z,1.55
2023-05-17T15:38:08.538Z,1.50
2023-05-17T15:43:10.221Z,1.35
2023-05-17T15:48:11.954Z,1.85
2023-05-17T15:53:14.806Z,1.45
2023-05-17T15:58:23.463Z,1.50
2023-05-17T16:03:25.128Z,1.45
2023-05-17T16:08:26.891Z,1.25
2023-05-17T16:13:28.756Z,1.55
2023-05-17T16:18:31.354Z,1.75
2023-05-17T16:23:33.418Z,10.70
2023-05-17T16:28:36.892Z,1.65
2023-05-17T16:33:38.822Z,2.13
2023-05-17T16:38:40.742Z,1.85
2023-05-17T16:43:42.474Z,1.67
2023-05-17T16:48:44.112Z,1.63
2023-05-17T16:53:45.818Z,2.50
2023-05-17T16:58:47.625Z,1.02
2023-05-17T17:03:49.381Z,1.70
2023-05-17T17:08:51.102Z,1.75
2023-05-17T17:13:53.530Z,1.80
2023-05-17T17:18:55.270Z,1.42
2023-05-17T17:23:57.214Z,1.65
2023-05-17T17:28:58.922Z,1.63
2023-05-17T17:34:00.648Z,1.48
2023-05-17T17:39:02.410Z,1.77
2023-05-17T17:44:04.261Z,2.10
2023-05-17T17:49:05.950Z,1.75
2023-05-17T17:54:08.398Z,1.20
2023-05-17T17:59:10.388Z,1.40
2023-05-17T18:04:13.564Z,1.60
2023-05-17T18:09:15.389Z,2.58
2023-05-17T18:14:17.619Z,1.95
2023-05-17T18:19:19.439Z,1.67
2023-05-17T18:24:21.162Z,2.25
2023-05-17T18:29:22.916Z,2.00
2023-05-17T18:34:25.626Z,1.73
2023-05-17T18:39:27.749Z,2.22
2023-05-17T18:44:55.457Z,1.77
2023-05-17T18:49:57.504Z,1.55
2023-05-17T18:54:59.204Z,2.08
2023-05-17T19:00:00.959Z,1.92
2023-05-17T19:05:02.724Z,1.70
2023-05-17T19:10:05.096Z,2.05
2023-05-17T19:15:09.446Z,2.05
2023-05-17T19:20:11.430Z,1.52
2023-05-17T19:25:15.426Z,2.47
2023-05-17T19:30:18.013Z,2.08
2023-05-17T19:35:19.783Z,2.28
2023-05-17T19:40:23.069Z,2.03
2023-05-17T19:45:24.910Z,1.48
2023-05-17T19:50:26.649Z,2.15
2023-05-17T19:55:30.302Z,2.10
2023-05-17T20:00:37.190Z,2.30
2023-05-17T20:10:40.494Z,1.75
2023-05-17T20:15:42.278Z,2.03
2023-05-17T20:20:44.065Z,2.25
2023-05-17T20:25:46.326Z,1.85
2023-05-17T20:30:48.214Z,2.10
2023-05-17T20:35:49.881Z,1.58
2023-05-17T20:40:52.087Z,1.65
2023-05-17T20:45:53.828Z,1.77
2023-05-17T20:50:55.625Z,1.90
2023-05-17T20:55:58.251Z,2.13
2023-05-17T21:01:01.177Z,2.55
2023-05-17T21:06:05.154Z,1.77
2023-05-17T21:11:06.987Z,1.67
2023-05-17T21:16:09.090Z,2.28
2023-05-17T21:21:12.310Z,2.10
2023-05-17T21:26:14.209Z,1.85
2023-05-17T21:31:16.021Z,1.88
2023-05-17T21:36:17.728Z,1.83
2023-05-17T21:41:20.232Z,1.73
2023-05-17T21:46:22.162Z,1.77
2023-05-17T21:51:23.910Z,1.90
2023-05-17T21:56:25.877Z,1.77
2023-05-17T22:01:27.664Z,1.70
2023-05-17T22:06:29.577Z,1.67
2023-05-17T22:11:31.337Z,1.80
2023-05-17T22:16:34.382Z,1.50
2023-05-17T22:21:36.151Z,2.53
2023-05-17T22:26:37.875Z,1.70
2023-05-17T22:31:39.676Z,2.17
2023-05-17T22:36:42.333Z,1.38
2023-05-17T22:41:44.405Z,1.90
2023-05-17T22:46:46.741Z,1.70
2023-05-17T22:51:48.453Z,1.70
2023-05-17T22:56:50.297Z,1.65
2023-05-17T23:01:52.197Z,1.73
2023-05-17T23:06:54.984Z,1.75
2023-05-17T23:11:59.444Z,1.92
2023-05-17T23:17:02.298Z,1.63
2023-05-17T23:22:06.380Z,1.92
2023-05-17T23:27:12.660Z,1.90
2023-05-17T23:32:14.978Z,1.95
2023-05-17T23:37:17.181Z,2.42
2023-05-17T23:42:20.302Z,2.17
2023-05-17T23:47:22.357Z,1.98
2023-05-17T23:52:24.511Z,1.40
2023-05-17T23:57:26.223Z,2.08
